createdAt,value
2018-05-11T00:00:24.773Z,11.68
2018-05-11T00:02:52.248Z,11.80
2018-05-11T00:05:19.742Z,12.03
2018-05-11T00:07:47.224Z,11.17
2018-05-11T00:10:14.691Z,11.35
2018-05-11T00:12:42.168Z,11.70
2018-05-11T00:15:09.655Z,12.05
2018-05-11T00:17:37.141Z,11.30
2018-05-11T00:20:04.617Z,12.10
2018-05-11T00:22:32.112Z,12.13
2018-05-11T00:24:59.575Z,12.10
2018-05-11T00:27:27.044Z,12.75
2018-05-11T00:29:54.524Z,13.13
2018-05-11T00:32:21.992Z,11.68
2018-05-11T00:34:49.484Z,11.97
2018-05-11T00:37:16.952Z,11.55
2018-05-11T00:39:44.438Z,11.60
2018-05-11T00:42:12.277Z,10.73
2018-05-11T00:44:39.756Z,12.97
2018-05-11T00:47:07.256Z,12.43
2018-05-11T00:49:34.720Z,13.03
2018-05-11T00:52:02.217Z,13.80
2018-05-11T00:54:29.696Z,13.02
2018-05-11T00:56:57.180Z,12.23
2018-05-11T00:59:24.675Z,12.77
2018-05-11T01:01:52.145Z,12.77
2018-05-11T01:04:19.880Z,14.00
2018-05-11T01:06:47.351Z,12.60
2018-05-11T01:09:14.824Z,12.93
2018-05-11T01:11:42.319Z,11.30
2018-05-11T01:14:09.783Z,12.93
2018-05-11T01:16:37.293Z,11.60
2018-05-11T01:19:04.775Z,12.25
2018-05-11T01:21:32.257Z,11.95
2018-05-11T01:23:59.744Z,11.87
2018-05-11T01:26:27.216Z,11.38
2018-05-11T01:28:54.700Z,11.40
2018-05-11T01:31:22.168Z,10.63
2018-05-11T01:33:49.643Z,12.23
2018-05-11T01:36:17.128Z,11.03
2018-05-11T01:38:44.592Z,11.67
2018-05-11T01:41:12.093Z,12.97
2018-05-11T01:43:39.563Z,12.20
2018-05-11T01:46:07.039Z,12.80
2018-05-11T01:48:34.536Z,13.10
2018-05-11T01:51:02.007Z,13.40
2018-05-11T01:53:29.493Z,12.77
2018-05-11T01:55:56.951Z,14.40
2018-05-11T01:58:24.422Z,13.17
2018-05-11T02:00:51.920Z,14.00
2018-05-11T02:03:19.394Z,14.47
2018-05-11T02:05:46.884Z,14.43
2018-05-11T02:08:14.352Z,14.73
2018-05-11T02:10:41.821Z,14.50
2018-05-11T02:13:09.312Z,16.37
2018-05-11T02:15:36.775Z,19.77
2018-05-11T02:18:04.271Z,20.83
2018-05-11T02:20:31.755Z,23.73
2018-05-11T02:22:59.220Z,22.30
2018-05-11T02:25:26.713Z,22.00
2018-05-11T02:27:54.195Z,21.13
2018-05-11T02:30:21.701Z,21.30
2018-05-11T02:32:49.178Z,15.57
2018-05-11T02:35:16.648Z,21.08
2018-05-11T02:37:44.140Z,23.00
2018-05-11T02:40:11.610Z,22.20
2018-05-11T02:42:39.111Z,22.93
2018-05-11T02:45:06.579Z,26.77
2018-05-11T02:47:34.123Z,24.03
2018-05-11T02:50:01.639Z,22.67
2018-05-11T02:52:29.198Z,23.00
2018-05-11T02:54:56.693Z,23.33
2018-05-11T02:57:24.172Z,24.60
2018-05-11T02:59:51.649Z,23.47
2018-05-11T03:02:19.145Z,24.20
2018-05-11T03:04:46.620Z,25.53
2018-05-11T03:07:14.116Z,24.00
2018-05-11T03:09:41.592Z,22.48
2018-05-11T03:12:09.059Z,22.05
2018-05-11T03:14:36.544Z,22.40
2018-05-11T03:17:04.019Z,22.77
2018-05-11T03:19:31.520Z,23.45
2018-05-11T03:21:58.996Z,20.87
2018-05-11T03:24:26.478Z,20.70
2018-05-11T03:26:53.960Z,22.43
2018-05-11T03:29:21.434Z,19.00
2018-05-11T03:31:48.925Z,19.53
2018-05-11T03:34:16.393Z,20.80
2018-05-11T03:36:43.860Z,21.12
2018-05-11T03:39:11.340Z,19.50
2018-05-11T03:41:38.812Z,21.67
2018-05-11T03:44:06.302Z,20.67
2018-05-11T03:46:33.772Z,22.77
2018-05-11T03:49:01.284Z,21.30
2018-05-11T03:51:28.760Z,20.55
2018-05-11T03:53:56.227Z,21.30
2018-05-11T03:56:23.735Z,22.83
2018-05-11T03:58:51.213Z,23.37
2018-05-11T04:01:30.373Z,24.00
2018-05-11T04:04:09.674Z,23.30
2018-05-11T04:06:49.024Z,23.47
2018-05-11T04:09:16.490Z,26.93
2018-05-11T04:11:44.404Z,25.80
2018-05-11T04:14:11.895Z,26.60
2018-05-11T04:16:40.216Z,24.70
2018-05-11T04:19:07.719Z,26.90
2018-05-11T04:21:35.184Z,24.10
2018-05-11T04:24:02.647Z,25.47
2018-05-11T04:26:30.150Z,24.87
2018-05-11T04:28:57.618Z,25.83
2018-05-11T04:31:25.109Z,24.33
2018-05-11T04:33:52.576Z,27.58
2018-05-11T04:36:20.043Z,25.97
2018-05-11T04:38:47.523Z,27.95
2018-05-11T04:41:14.993Z,26.37
2018-05-11T04:43:42.500Z,29.13
2018-05-11T04:46:09.965Z,28.70
2018-05-11T04:48:37.435Z,29.90
2018-05-11T04:51:05.021Z,29.13
2018-05-11T04:53:32.500Z,29.00
2018-05-11T04:55:59.988Z,29.30
2018-05-11T04:58:27.452Z,29.97
2018-05-11T05:00:54.924Z,29.87
2018-05-11T05:03:22.400Z,28.07
2018-05-11T05:05:49.866Z,29.10
2018-05-11T05:08:17.374Z,27.07
2018-05-11T05:10:44.928Z,28.10
2018-05-11T05:13:12.397Z,26.50
2018-05-11T05:15:39.889Z,26.57
2018-05-11T05:18:07.357Z,26.07
2018-05-11T05:20:34.851Z,27.03
2018-05-11T05:23:02.337Z,26.90
2018-05-11T05:25:29.812Z,28.23
2018-05-11T05:27:57.305Z,28.52
2018-05-11T05:30:24.772Z,26.30
2018-05-11T05:32:52.276Z,25.47
2018-05-11T05:35:19.760Z,28.53
2018-05-11T05:37:47.234Z,24.80
2018-05-11T05:40:14.716Z,26.20
2018-05-11T05:42:42.190Z,25.20
2018-05-11T05:45:09.690Z,24.67
2018-05-11T05:47:37.167Z,28.03
2018-05-11T05:50:04.652Z,24.93
2018-05-11T05:52:32.160Z,25.00
2018-05-11T05:54:59.631Z,24.30
2018-05-11T05:57:27.112Z,24.70
2018-05-11T05:59:54.611Z,25.93
2018-05-11T06:02:22.120Z,26.03
2018-05-11T06:04:49.595Z,26.47
2018-05-11T06:07:17.069Z,26.00
2018-05-11T06:09:44.860Z,25.43
2018-05-11T06:12:12.335Z,23.00
2018-05-11T06:14:39.808Z,26.70
2018-05-11T06:17:07.289Z,24.10
2018-05-11T06:19:34.761Z,26.10
2018-05-11T06:22:02.321Z,21.77
2018-05-11T06:24:29.758Z,26.67
2018-05-11T06:26:57.229Z,26.77
2018-05-11T06:29:24.719Z,24.27
2018-05-11T06:31:52.199Z,27.13
2018-05-11T06:34:19.754Z,25.48
2018-05-11T06:36:47.270Z,24.40
2018-05-11T06:39:14.744Z,24.23
2018-05-11T06:41:42.547Z,26.73
2018-05-11T06:44:10.022Z,27.40
2018-05-11T06:46:37.503Z,29.50
2018-05-11T06:49:04.980Z,25.87
2018-05-11T06:51:32.444Z,25.57
2018-05-11T06:54:00.627Z,27.55
2018-05-11T06:56:28.092Z,29.30
2018-05-11T06:58:55.576Z,27.97
2018-05-11T07:01:23.040Z,28.33
2018-05-11T07:03:50.519Z,24.70
2018-05-11T07:06:18.028Z,25.92
2018-05-11T07:08:45.488Z,27.20
2018-05-11T07:11:12.954Z,24.20
2018-05-11T07:13:40.464Z,26.67
2018-05-11T07:16:07.928Z,27.50
2018-05-11T07:18:35.390Z,24.27
2018-05-11T07:21:02.888Z,26.67
2018-05-11T07:23:30.408Z,25.10
2018-05-11T07:25:57.904Z,25.17
2018-05-11T07:28:25.367Z,27.33
2018-05-11T07:30:52.844Z,25.23
2018-05-11T07:33:20.329Z,25.67
2018-05-11T07:35:47.798Z,22.93
2018-05-11T07:38:15.288Z,25.13
2018-05-11T07:40:42.748Z,26.10
2018-05-11T07:43:10.271Z,24.93
2018-05-11T07:45:37.725Z,24.00
2018-05-11T07:48:05.197Z,22.80
2018-05-11T07:50:32.679Z,23.23
2018-05-11T07:53:00.136Z,25.70
2018-05-11T07:55:27.595Z,24.83
2018-05-11T07:57:55.088Z,24.30
2018-05-11T08:00:22.715Z,26.27
2018-05-11T08:02:50.220Z,25.17
2018-05-11T08:05:17.692Z,23.13
2018-05-11T08:07:45.153Z,22.77
2018-05-11T08:10:12.629Z,27.27
2018-05-11T08:12:40.095Z,23.30
2018-05-11T08:15:07.582Z,25.13
2018-05-11T08:17:35.063Z,21.17
2018-05-11T08:20:02.542Z,23.17
2018-05-11T08:22:30.025Z,21.57
2018-05-11T08:24:57.495Z,23.47
2018-05-11T08:27:24.979Z,23.33
2018-05-11T08:29:52.462Z,25.97
2018-05-11T08:32:19.939Z,23.53
2018-05-11T08:34:47.434Z,22.00
2018-05-11T08:37:14.908Z,23.43
2018-05-11T08:39:42.382Z,25.30
2018-05-11T08:42:09.847Z,24.67
2018-05-11T08:44:37.324Z,26.27
2018-05-11T08:47:04.800Z,25.87
2018-05-11T08:49:32.269Z,24.57
2018-05-11T08:51:59.834Z,24.07
2018-05-11T08:54:27.225Z,23.53
2018-05-11T08:56:54.773Z,27.53
2018-05-11T08:59:22.243Z,24.33
2018-05-11T09:01:49.700Z,26.23
2018-05-11T09:04:17.234Z,27.10
2018-05-11T09:06:44.696Z,25.10
2018-05-11T09:09:12.276Z,24.13
2018-05-11T09:11:39.751Z,26.83
2018-05-11T09:14:07.213Z,23.07
2018-05-11T09:16:34.693Z,26.00
2018-05-11T09:19:02.156Z,28.20
2018-05-11T09:21:29.729Z,24.75
2018-05-11T09:23:57.131Z,28.40
2018-05-11T09:26:24.597Z,24.37
2018-05-11T09:28:52.079Z,23.43
2018-05-11T09:31:19.548Z,24.33
2018-05-11T09:33:47.029Z,26.00
2018-05-11T09:36:14.501Z,27.60
2018-05-11T09:38:41.963Z,28.10
2018-05-11T09:41:09.460Z,25.63
2018-05-11T09:43:36.942Z,27.53
2018-05-11T09:46:04.427Z,25.60
2018-05-11T09:48:31.896Z,24.50
2018-05-11T09:50:59.359Z,24.83
2018-05-11T09:53:26.863Z,22.30
2018-05-11T09:55:54.331Z,26.60
2018-05-11T09:58:21.816Z,24.73
2018-05-11T10:00:49.289Z,26.63
2018-05-11T10:03:16.768Z,23.83
2018-05-11T10:05:44.256Z,23.87
2018-05-11T10:08:11.779Z,24.90
2018-05-11T10:10:39.269Z,25.52
2018-05-11T10:13:06.736Z,25.57
2018-05-11T10:15:34.214Z,25.13
2018-05-11T10:18:01.709Z,24.70
2018-05-11T10:20:29.176Z,24.90
2018-05-11T10:22:56.665Z,24.77
2018-05-11T10:25:24.145Z,26.50
2018-05-11T10:27:51.604Z,25.70
2018-05-11T10:30:19.093Z,24.07
2018-05-11T10:32:46.568Z,25.65
2018-05-11T10:35:14.056Z,25.60
2018-05-11T10:37:41.535Z,24.42
2018-05-11T10:40:09.014Z,25.93
2018-05-11T10:42:36.512Z,23.33
2018-05-11T10:45:03.991Z,23.73
2018-05-11T10:47:31.479Z,22.67
2018-05-11T10:49:58.944Z,22.90
2018-05-11T10:52:26.499Z,21.17
2018-05-11T10:54:53.919Z,19.87
2018-05-11T10:57:21.947Z,19.77
2018-05-11T10:59:49.758Z,21.05
2018-05-11T11:02:17.229Z,18.20
2018-05-11T11:04:44.702Z,17.65
2018-05-11T11:07:12.200Z,19.30
2018-05-11T11:09:39.656Z,19.83
2018-05-11T11:12:07.158Z,19.90
2018-05-11T11:14:34.660Z,19.23
2018-05-11T11:17:02.473Z,19.00
2018-05-11T11:19:29.945Z,19.63
2018-05-11T11:21:57.416Z,19.70
2018-05-11T11:24:24.897Z,17.10
2018-05-11T11:26:52.362Z,18.53
2018-05-11T11:29:19.852Z,18.80
2018-05-11T11:31:47.324Z,17.00
2018-05-11T11:34:15.509Z,17.87
2018-05-11T11:36:42.935Z,14.60
2018-05-11T11:39:11.010Z,14.10
2018-05-11T11:41:38.497Z,16.55
2018-05-11T11:44:05.967Z,13.60
2018-05-11T11:46:33.819Z,13.80
2018-05-11T11:49:01.289Z,13.37
2018-05-11T11:51:28.768Z,12.00
2018-05-11T11:53:56.586Z,14.20
2018-05-11T11:56:24.307Z,14.40
2018-05-11T11:58:51.896Z,11.20
2018-05-11T12:01:19.357Z,11.87
2018-05-11T12:03:46.818Z,27.10
2018-05-11T12:06:14.621Z,13.13
2018-05-11T12:08:42.339Z,10.23
2018-05-11T12:11:09.822Z,9.57
2018-05-11T12:13:37.634Z,9.53
2018-05-11T12:16:05.125Z,10.03
2018-05-11T12:18:33.131Z,8.10
2018-05-11T12:21:00.590Z,6.05
2018-05-11T12:23:28.108Z,10.93
2018-05-11T12:25:55.576Z,10.27
2018-05-11T12:28:23.032Z,8.10
2018-05-11T12:30:50.505Z,6.60
2018-05-11T12:33:17.968Z,8.33
2018-05-11T12:35:45.519Z,7.57
2018-05-11T12:38:13.072Z,7.43
2018-05-11T12:40:40.529Z,7.33
2018-05-11T12:43:08.009Z,6.83
2018-05-11T12:45:36.056Z,5.60
2018-05-11T12:48:03.588Z,3.95
2018-05-11T12:50:31.038Z,2.93
2018-05-11T12:52:58.611Z,3.73
2018-05-11T12:55:25.989Z,3.70
2018-05-11T12:57:53.443Z,2.90
2018-05-11T13:00:20.921Z,6.37
2018-05-11T13:02:48.392Z,5.17
2018-05-11T13:05:15.876Z,4.07
2018-05-11T13:07:43.337Z,3.47
2018-05-11T13:10:10.785Z,3.90
2018-05-11T13:12:38.279Z,4.70
2018-05-11T13:15:05.739Z,4.67
2018-05-11T13:17:33.239Z,2.97
2018-05-11T13:20:00.687Z,2.90
2018-05-11T13:22:28.135Z,3.83
2018-05-11T13:24:55.743Z,3.40
2018-05-11T13:27:23.200Z,2.80
2018-05-11T13:29:50.676Z,2.27
2018-05-11T13:32:18.139Z,2.30
2018-05-11T13:34:45.602Z,2.40
2018-05-11T13:37:13.084Z,2.53
2018-05-11T13:39:40.547Z,2.63
2018-05-11T13:42:08.050Z,2.50
2018-05-11T13:44:35.506Z,3.70
2018-05-11T13:47:02.960Z,3.22
2018-05-11T13:49:30.439Z,4.90
2018-05-11T13:51:57.908Z,3.53
2018-05-11T13:54:25.412Z,3.50
2018-05-11T13:56:53.855Z,3.50
2018-05-11T13:59:21.324Z,4.10
2018-05-11T14:01:48.821Z,5.07
2018-05-11T14:04:16.284Z,4.40
2018-05-11T14:06:43.761Z,4.90
2018-05-11T14:09:11.235Z,4.93
2018-05-11T14:11:38.699Z,5.20
2018-05-11T14:14:06.180Z,4.90
2018-05-11T14:16:33.650Z,4.30
2018-05-11T14:19:01.129Z,5.00
2018-05-11T14:21:28.587Z,5.10
2018-05-11T14:23:56.047Z,5.47
2018-05-11T14:26:23.529Z,4.37
2018-05-11T14:28:50.987Z,4.60
2018-05-11T14:31:18.547Z,5.47
2018-05-11T14:33:45.945Z,4.90
2018-05-11T14:36:13.418Z,4.20
2018-05-11T14:38:40.888Z,5.37
2018-05-11T14:41:08.352Z,4.95
2018-05-11T14:43:35.847Z,4.10
2018-05-11T14:46:03.300Z,4.20
2018-05-11T14:48:30.756Z,4.60
2018-05-11T14:50:58.247Z,5.20
2018-05-11T14:53:25.706Z,4.87
2018-05-11T14:55:53.376Z,5.80
2018-05-11T14:58:20.840Z,5.63
2018-05-11T15:00:49.183Z,5.03
2018-05-11T15:03:16.661Z,4.90
2018-05-11T15:05:44.145Z,5.53
2018-05-11T15:08:11.628Z,4.80
2018-05-11T15:10:39.093Z,4.80
2018-05-11T15:13:06.576Z,5.50
2018-05-11T15:15:34.055Z,4.67
2018-05-11T15:18:01.503Z,3.87
2018-05-11T15:20:28.980Z,3.93
2018-05-11T15:22:56.448Z,26.70
2018-05-11T15:25:23.924Z,3.90
2018-05-11T15:27:51.396Z,4.33
2018-05-11T15:30:19.222Z,3.47
2018-05-11T15:32:46.710Z,3.10
2018-05-11T15:35:14.166Z,4.00
2018-05-11T15:37:41.632Z,3.63
2018-05-11T15:40:09.185Z,3.73
2018-05-11T15:42:36.659Z,4.00
2018-05-11T15:45:04.134Z,3.77
2018-05-11T15:47:31.599Z,4.40
2018-05-11T15:49:59.087Z,4.03
2018-05-11T15:52:26.558Z,4.13
2018-05-11T15:54:54.031Z,4.43
2018-05-11T15:57:21.495Z,5.90
2018-05-11T15:59:49.137Z,15.07
2018-05-11T16:02:16.624Z,35.87
2018-05-11T16:04:44.104Z,6.43
2018-05-11T16:07:11.589Z,13.10
2018-05-11T16:09:39.051Z,6.70
2018-05-11T16:12:06.535Z,6.60
2018-05-11T16:14:34.017Z,21.20
2018-05-11T16:17:01.511Z,11.90
2018-05-11T16:19:28.993Z,11.37
2018-05-11T16:21:56.460Z,7.13
2018-05-11T16:24:23.944Z,9.38
2018-05-11T16:26:51.407Z,5.90
2018-05-11T16:29:18.965Z,7.50
2018-05-11T16:31:46.451Z,8.73
2018-05-11T16:34:13.928Z,4.50
2018-05-11T16:36:41.415Z,5.63
2018-05-11T16:39:08.897Z,4.57
2018-05-11T16:41:36.365Z,5.40
2018-05-11T16:44:03.838Z,5.10
2018-05-11T16:46:31.305Z,15.80
2018-05-11T16:48:58.789Z,8.60
2018-05-11T16:51:26.287Z,6.62
2018-05-11T16:53:53.748Z,6.07
2018-05-11T16:56:21.235Z,5.17
2018-05-11T16:58:48.728Z,4.83
2018-05-11T17:01:16.219Z,4.03
2018-05-11T17:03:43.924Z,4.07
2018-05-11T17:06:11.383Z,8.10
2018-05-11T17:08:38.855Z,5.20
2018-05-11T17:11:06.784Z,6.20
2018-05-11T17:13:34.276Z,5.65
2018-05-11T17:16:01.740Z,5.53
2018-05-11T17:18:29.195Z,5.00
2018-05-11T17:20:56.672Z,5.20
2018-05-11T17:23:24.129Z,5.00
2018-05-11T17:25:51.599Z,5.07
2018-05-11T17:28:19.060Z,4.87
2018-05-11T17:30:46.527Z,4.13
2018-05-11T17:33:14.012Z,5.30
2018-05-11T17:35:41.480Z,4.30
2018-05-11T17:38:08.978Z,5.27
2018-05-11T17:40:36.459Z,7.12
2018-05-11T17:43:03.920Z,6.40
2018-05-11T17:45:31.395Z,6.28
2018-05-11T17:47:58.856Z,9.50
2018-05-11T17:50:26.341Z,5.90
2018-05-11T17:52:53.843Z,4.93
2018-05-11T17:55:21.324Z,4.30
2018-05-11T17:57:48.784Z,5.23
2018-05-11T18:00:16.243Z,5.33
2018-05-11T18:02:43.728Z,5.27
2018-05-11T18:05:11.205Z,6.80
2018-05-11T18:07:38.705Z,6.40
2018-05-11T18:10:06.233Z,4.60
2018-05-11T18:12:33.659Z,6.18
2018-05-11T18:15:01.117Z,5.10
2018-05-11T18:17:29.060Z,4.80
2018-05-11T18:19:56.614Z,6.00
2018-05-11T18:22:25.065Z,5.33
2018-05-11T18:24:52.550Z,5.00
2018-05-11T18:27:20.003Z,7.60
2018-05-11T18:29:47.479Z,20.65
2018-05-11T18:32:15.768Z,18.17
2018-05-11T18:34:43.421Z,5.50
2018-05-11T18:37:10.903Z,5.67
2018-05-11T18:39:38.452Z,6.37
2018-05-11T18:42:06.975Z,5.90
2018-05-11T18:44:34.424Z,6.70
2018-05-11T18:47:01.919Z,8.47
2018-05-11T18:49:30.355Z,10.70
2018-05-11T18:51:57.807Z,7.17
2018-05-11T18:54:26.006Z,7.70
2018-05-11T18:56:54.073Z,6.03
2018-05-11T18:59:22.540Z,6.50
2018-05-11T19:01:50.888Z,6.00
2018-05-11T19:04:18.352Z,7.03
2018-05-11T19:06:45.828Z,6.65
2018-05-11T19:09:13.308Z,7.77
2018-05-11T19:11:40.763Z,7.03
2018-05-11T19:14:08.248Z,7.67
2018-05-11T19:16:36.939Z,9.23
2018-05-11T19:19:04.788Z,16.30
2018-05-11T19:21:32.256Z,9.57
2018-05-11T19:23:59.760Z,9.00
2018-05-11T19:26:28.580Z,10.73
2018-05-11T19:28:57.540Z,8.48
2018-05-11T19:31:25.587Z,8.77
2018-05-11T19:33:53.050Z,9.77
2018-05-11T19:36:20.762Z,8.13
2018-05-11T19:38:48.420Z,9.20
2018-05-11T19:41:15.881Z,8.87
2018-05-11T19:43:43.362Z,8.93
2018-05-11T19:46:10.824Z,9.30
2018-05-11T19:48:38.292Z,10.53
2018-05-11T19:51:05.969Z,10.80
2018-05-11T19:53:34.703Z,10.77
2018-05-11T19:56:02.320Z,9.50
2018-05-11T19:58:30.845Z,9.13
2018-05-11T20:00:58.322Z,13.30
2018-05-11T20:03:25.818Z,20.58
2018-05-11T20:05:53.789Z,12.30
2018-05-11T20:08:21.280Z,12.63
2018-05-11T20:10:49.499Z,15.63
2018-05-11T20:13:16.992Z,14.93
2018-05-11T20:15:44.551Z,10.83
2018-05-11T20:18:13.168Z,10.70
2018-05-11T20:20:40.594Z,11.73
2018-05-11T20:23:08.064Z,14.87
2018-05-11T20:25:36.284Z,11.30
2018-05-11T20:28:03.813Z,10.20
2018-05-11T20:30:31.283Z,9.00
2018-05-11T20:32:59.013Z,9.27
2018-05-11T20:35:26.476Z,10.07
2018-05-11T20:37:53.935Z,13.00
2018-05-11T20:40:21.419Z,16.13
2018-05-11T20:42:48.890Z,12.07
2018-05-11T20:45:16.371Z,10.70
2018-05-11T20:47:43.837Z,9.40
2018-05-11T20:50:11.311Z,8.90
2018-05-11T20:52:38.780Z,9.93
2018-05-11T20:55:06.257Z,13.23
2018-05-11T20:57:33.737Z,13.40
2018-05-11T21:00:01.193Z,8.70
2018-05-11T21:02:28.695Z,9.00
2018-05-11T21:04:56.224Z,10.07
2018-05-11T21:07:23.653Z,9.70
2018-05-11T21:09:51.125Z,8.60
2018-05-11T21:12:18.579Z,8.50
2018-05-11T21:14:46.211Z,8.90
2018-05-11T21:17:13.565Z,9.10
2018-05-11T21:19:41.025Z,8.83
2018-05-11T21:22:08.578Z,9.00
2018-05-11T21:24:36.013Z,7.90
2018-05-11T21:27:03.498Z,10.20
2018-05-11T21:29:30.970Z,9.00
2018-05-11T21:31:58.424Z,8.93
2018-05-11T21:34:25.928Z,8.03
2018-05-11T21:36:53.389Z,8.50
2018-05-11T21:39:20.884Z,8.70
2018-05-11T21:41:48.347Z,8.50
2018-05-11T21:44:15.799Z,8.47
2018-05-11T21:46:43.285Z,8.07
2018-05-11T21:49:10.746Z,9.00
2018-05-11T21:51:38.224Z,9.20
2018-05-11T21:54:05.679Z,8.37
2018-05-11T21:56:33.128Z,8.40
2018-05-11T21:59:00.611Z,9.07
2018-05-11T22:01:28.084Z,10.57
2018-05-11T22:03:56.479Z,9.73
2018-05-11T22:06:23.931Z,8.87
2018-05-11T22:08:51.408Z,8.43
2018-05-11T22:11:18.868Z,9.33
2018-05-11T22:13:46.328Z,8.90
2018-05-11T22:16:13.813Z,8.63
2018-05-11T22:18:41.271Z,9.00
2018-05-11T22:21:08.835Z,9.88
2018-05-11T22:23:36.296Z,9.40
2018-05-11T22:26:03.783Z,15.67
2018-05-11T22:28:31.243Z,16.57
2018-05-11T22:30:59.127Z,11.30
2018-05-11T22:33:26.624Z,10.07
2018-05-11T22:35:54.086Z,10.50
2018-05-11T22:38:21.573Z,10.77
2018-05-11T22:40:49.046Z,9.53
2018-05-11T22:43:16.523Z,11.00
2018-05-11T22:45:44.333Z,10.23
2018-05-11T22:48:11.807Z,11.00
2018-05-11T22:50:39.298Z,10.73
2018-05-11T22:53:06.769Z,11.57
2018-05-11T22:55:34.240Z,10.03
2018-05-11T22:58:01.727Z,11.07
2018-05-11T23:00:36.213Z,30.17
2018-05-11T23:03:03.720Z,130.97
2018-05-11T23:05:31.184Z,39.88
2018-05-11T23:07:58.645Z,15.00
2018-05-11T23:10:26.134Z,14.93
2018-05-11T23:12:53.604Z,12.27
2018-05-11T23:15:21.108Z,12.63
2018-05-11T23:17:48.575Z,13.00
2018-05-11T23:20:16.035Z,13.17
2018-05-11T23:22:43.519Z,12.90
2018-05-11T23:25:10.980Z,14.40
2018-05-11T23:27:38.465Z,61.10
2018-05-11T23:30:05.940Z,18.33
2018-05-11T23:32:33.438Z,16.23
2018-05-11T23:35:00.986Z,14.17
2018-05-11T23:37:28.386Z,14.73
2018-05-11T23:39:55.872Z,15.70
2018-05-11T23:42:23.349Z,36.97
2018-05-11T23:44:50.912Z,18.87
2018-05-11T23:47:18.386Z,14.85
2018-05-11T23:49:45.944Z,15.27
2018-05-11T23:52:13.357Z,15.73
2018-05-11T23:54:40.826Z,15.13
2018-05-11T23:57:08.311Z,14.23
2018-05-11T23:59:35.771Z,14.73
